Time;durP1;ratioP1;P1;durP2;ratioP2;P2;SDS_P1;SDS_P2;PMS_P1;PMS_P2;Temp;Humidity;BMP_temperature;BMP_pressure;BME280_temperature;BME280_humidity;BME280_pressure;Samples;Min_cycle;Max_cycle;Signal;HPM_P1;HPM_P2
2022/07/14 00:01:23;;;;;;;2.70;2.35;;;;;;;;;;5054490;28;20227;-53
2022/07/14 00:03:49;;;;;;;2.63;2.42;;;;;;;;;;5063707;28;20243;-52
2022/07/14 00:06:17;;;;;;;2.10;2.00;;;;;;;;;;5067245;28;20231;-52
2022/07/14 00:08:43;;;;;;;4.30;2.20;;;;;;;;;;5062813;28;20231;-52
2022/07/14 00:11:10;;;;;;;2.95;2.53;;;;;;;;;;5065707;28;20277;-52
2022/07/14 00:13:36;;;;;;;4.45;2.63;;;;;;;;;;5067739;28;20262;-52
2022/07/14 00:16:03;;;;;;;3.65;3.00;;;;;;;;;;5060037;28;20228;-51
2022/07/14 00:18:29;;;;;;;2.15;1.95;;;;;;;;;;5067345;28;20689;-51
2022/07/14 00:20:55;;;;;;;2.70;2.42;;;;;;;;;;5065744;28;20231;-52
2022/07/14 00:23:24;;;;;;;2.30;2.10;;;;;;;;;;5059620;28;20231;-53
2022/07/14 00:25:50;;;;;;;2.20;2.00;;;;;;;;;;5065970;28;20243;-54
2022/07/14 00:28:17;;;;;;;2.65;2.45;;;;;;;;;;5061708;28;20238;-52
2022/07/14 00:30:44;;;;;;;4.10;2.42;;;;;;;;;;5059010;28;20641;-53
2022/07/14 00:33:10;;;;;;;5.10;2.20;;;;;;;;;;5060146;28;20242;-52
2022/07/14 00:35:36;;;;;;;2.97;2.70;;;;;;;;;;5064769;28;20246;-52
2022/07/14 00:38:04;;;;;;;2.40;2.20;;;;;;;;;;5053899;28;20319;-52
2022/07/14 00:40:31;;;;;;;2.60;2.40;;;;;;;;;;5070981;28;20227;-54
2022/07/14 00:42:58;;;;;;;2.42;2.22;;;;;;;;;;5070356;28;20238;-52
2022/07/14 00:45:26;;;;;;;3.85;2.00;;;;;;;;;;5063460;27;20231;-52
2022/07/14 00:47:52;;;;;;;3.40;3.03;;;;;;;;;;5065566;28;20538;-56
2022/07/14 00:50:20;;;;;;;3.63;3.33;;;;;;;;;;5052940;28;20236;-52
2022/07/14 00:52:48;;;;;;;2.35;2.22;;;;;;;;;;5053449;28;20662;-51
2022/07/14 00:55:15;;;;;;;2.88;2.67;;;;;;;;;;5057706;28;20303;-53
2022/07/14 00:57:43;;;;;;;3.53;3.22;;;;;;;;;;5067345;28;20227;-50
2022/07/14 01:00:10;;;;;;;4.60;2.55;;;;;;;;;;5055041;28;20246;-52
2022/07/14 01:02:37;;;;;;;3.03;2.75;;;;;;;;;;5063234;28;20219;-52
2022/07/14 01:05:04;;;;;;;2.63;2.42;;;;;;;;;;5056666;28;20235;-52
2022/07/14 01:07:30;;;;;;;2.90;2.50;;;;;;;;;;5060282;28;20231;-51
2022/07/14 01:09:56;;;;;;;2.58;2.47;;;;;;;;;;5055506;28;20227;-52
2022/07/14 01:12:23;;;;;;;2.65;2.47;;;;;;;;;;5065847;28;20727;-51
2022/07/14 01:14:50;;;;;;;2.38;2.15;;;;;;;;;;5063049;28;20231;-51
2022/07/14 01:17:17;;;;;;;3.42;2.55;;;;;;;;;;5061845;28;20247;-51
2022/07/14 01:19:43;;;;;;;2.45;2.25;;;;;;;;;;5053736;28;20249;-55
2022/07/14 01:22:12;;;;;;;2.85;2.65;;;;;;;;;;5064307;28;20238;-52
2022/07/14 01:24:38;;;;;;;2.85;2.65;;;;;;;;;;5064526;28;20246;-51
2022/07/14 01:27:04;;;;;;;2.47;2.28;;;;;;;;;;5062585;28;20231;-51
2022/07/14 01:29:31;;;;;;;2.92;2.70;;;;;;;;;;5058490;28;20848;-50
2022/07/14 01:31:57;;;;;;;4.20;2.88;;;;;;;;;;5061403;28;20234;-52
2022/07/14 01:34:24;;;;;;;3.38;2.50;;;;;;;;;;5059548;28;20697;-52
2022/07/14 01:36:52;;;;;;;2.75;2.55;;;;;;;;;;5062501;28;20439;-52
2022/07/14 01:39:20;;;;;;;2.58;2.38;;;;;;;;;;5062292;28;20231;-51
2022/07/14 01:41:46;;;;;;;2.15;1.95;;;;;;;;;;5067418;28;20260;-53
2022/07/14 01:44:12;;;;;;;5.93;2.47;;;;;;;;;;5065217;28;20263;-51
2022/07/14 01:46:39;;;;;;;3.10;2.20;;;;;;;;;;5062573;28;20611;-51
2022/07/14 01:49:05;;;;;;;5.75;2.17;;;;;;;;;;5060992;28;20223;-51
2022/07/14 01:51:32;;;;;;;2.65;2.28;;;;;;;;;;5061433;28;20246;-52
2022/07/14 01:53:58;;;;;;;5.15;1.95;;;;;;;;;;5062011;28;20238;-53
2022/07/14 01:56:26;;;;;;;3.85;2.17;;;;;;;;;;5063184;28;20314;-51
2022/07/14 01:58:52;;;;;;;2.60;1.83;;;;;;;;;;5061680;28;20231;-51
2022/07/14 02:04:03;;;;;;;1.70;1.60;;;;;;;;;;5056958;28;20262;-53
2022/07/14 02:06:30;;;;;;;2.25;2.05;;;;;;;;;;5064240;28;20229;-51
2022/07/14 02:08:56;;;;;;;3.67;2.20;;;;;;;;;;5064258;28;20241;-51
2022/07/14 02:14:08;;;;;;;2.40;2.15;;;;;;;;;;5060385;28;20853;-51
2022/07/14 02:16:34;;;;;;;6.05;2.55;;;;;;;;;;5059696;28;20241;-52
2022/07/14 02:19:00;;;;;;;2.60;2.40;;;;;;;;;;5062731;28;20227;-52
2022/07/14 02:21:27;;;;;;;4.53;2.40;;;;;;;;;;5063112;28;20784;-52
2022/07/14 02:23:54;;;;;;;4.53;2.22;;;;;;;;;;5063436;28;20234;-51
2022/07/14 02:26:20;;;;;;;2.72;2.47;;;;;;;;;;5064391;28;20235;-53
2022/07/14 02:28:47;;;;;;;4.03;2.50;;;;;;;;;;5062424;28;20276;-53
2022/07/14 02:31:14;;;;;;;3.05;1.95;;;;;;;;;;5057439;28;20230;-53
2022/07/14 02:33:41;;;;;;;7.93;2.40;;;;;;;;;;5063615;28;20250;-52
2022/07/14 02:36:08;;;;;;;2.78;2.05;;;;;;;;;;5063477;28;20242;-52
2022/07/14 02:38:34;;;;;;;2.47;2.22;;;;;;;;;;5061352;28;20227;-54
2022/07/14 02:41:00;;;;;;;6.05;2.60;;;;;;;;;;5058364;28;20314;-52
2022/07/14 02:43:31;;;;;;;2.25;1.77;;;;;;;;;;5065624;28;20242;-50
2022/07/14 02:45:57;;;;;;;4.53;2.08;;;;;;;;;;5064102;28;20800;-51
2022/07/14 02:48:25;;;;;;;4.43;2.15;;;;;;;;;;5060446;28;20234;-52
2022/07/14 02:50:51;;;;;;;5.07;2.08;;;;;;;;;;5065385;28;20721;-54
2022/07/14 02:53:18;;;;;;;5.88;2.75;;;;;;;;;;5060891;28;20250;-52
2022/07/14 02:55:44;;;;;;;3.25;1.70;;;;;;;;;;5059963;28;20231;-53
2022/07/14 02:58:10;;;;;;;4.22;2.17;;;;;;;;;;5054717;28;20231;-53
2022/07/14 03:00:38;;;;;;;4.22;1.52;;;;;;;;;;5058251;28;20231;-53
2022/07/14 03:03:06;;;;;;;8.82;2.55;;;;;;;;;;5061757;28;20223;-52
2022/07/14 03:05:33;;;;;;;4.82;1.80;;;;;;;;;;5057231;28;20231;-52
2022/07/14 03:08:00;;;;;;;5.00;1.50;;;;;;;;;;5062529;28;20249;-52
2022/07/14 03:10:26;;;;;;;5.53;1.92;;;;;;;;;;5058799;28;20298;-52
2022/07/14 03:12:53;;;;;;;3.85;1.70;;;;;;;;;;5063564;28;20234;-51
2022/07/14 03:15:20;;;;;;;5.78;2.53;;;;;;;;;;5062499;28;20235;-51
2022/07/14 03:17:46;;;;;;;6.38;2.13;;;;;;;;;;5060092;28;20227;-51
2022/07/14 03:20:13;;;;;;;3.47;2.08;;;;;;;;;;5063124;28;20223;-51
2022/07/14 03:22:41;;;;;;;5.05;1.88;;;;;;;;;;5062934;28;20310;-52
2022/07/14 03:25:08;;;;;;;6.38;2.08;;;;;;;;;;5061012;28;20235;-52
2022/07/14 03:27:35;;;;;;;4.40;2.08;;;;;;;;;;5062188;28;20231;-52
2022/07/14 03:30:01;;;;;;;6.78;2.35;;;;;;;;;;5054938;28;20223;-53
2022/07/14 03:32:28;;;;;;;6.72;2.00;;;;;;;;;;5064649;28;20235;-51
2022/07/14 03:34:54;;;;;;;4.78;2.05;;;;;;;;;;5057934;28;20245;-52
2022/07/14 03:37:20;;;;;;;5.18;2.58;;;;;;;;;;5059394;28;20238;-52
2022/07/14 03:39:48;;;;;;;4.53;2.10;;;;;;;;;;5062892;28;20222;-54
2022/07/14 03:42:15;;;;;;;4.82;2.33;;;;;;;;;;5059010;28;20745;-52
2022/07/14 03:44:42;;;;;;;6.82;1.83;;;;;;;;;;5063186;28;20235;-52
2022/07/14 03:47:08;;;;;;;6.78;2.00;;;;;;;;;;5068751;28;20239;-53
2022/07/14 03:49:34;;;;;;;6.55;2.25;;;;;;;;;;5064805;28;20290;-52
2022/07/14 03:52:01;;;;;;;6.35;2.13;;;;;;;;;;5064831;28;20234;-52
2022/07/14 03:54:27;;;;;;;6.85;2.63;;;;;;;;;;5064396;28;20242;-52
2022/07/14 03:56:55;;;;;;;3.22;1.42;;;;;;;;;;5065799;28;20242;-52
2022/07/14 03:59:21;;;;;;;2.83;1.33;;;;;;;;;;5061149;28;20237;-51
2022/07/14 04:01:47;;;;;;;6.47;2.40;;;;;;;;;;5062742;28;20234;-51
2022/07/14 04:04:14;;;;;;;7.57;2.15;;;;;;;;;;5063609;28;20239;-52
2022/07/14 04:06:40;;;;;;;9.25;2.50;;;;;;;;;;5064036;28;20231;-52
2022/07/14 04:09:07;;;;;;;8.60;2.38;;;;;;;;;;5059817;28;20227;-51
2022/07/14 04:11:33;;;;;;;6.63;2.42;;;;;;;;;;5065060;28;20238;-52
2022/07/14 04:14:01;;;;;;;5.32;2.33;;;;;;;;;;5063863;28;20231;-51
2022/07/14 04:16:27;;;;;;;5.88;2.67;;;;;;;;;;5061440;28;20721;-50
2022/07/14 04:18:54;;;;;;;9.88;2.58;;;;;;;;;;5061658;28;20238;-52
2022/07/14 04:21:20;;;;;;;5.18;2.13;;;;;;;;;;5064600;28;21963;-51
2022/07/14 04:23:47;;;;;;;6.80;2.08;;;;;;;;;;5061985;28;20239;-57
2022/07/14 04:26:13;;;;;;;4.50;2.00;;;;;;;;;;5064739;28;20259;-52
2022/07/14 04:28:40;;;;;;;6.82;2.03;;;;;;;;;;5063538;28;20231;-53
2022/07/14 04:31:08;;;;;;;4.35;2.10;;;;;;;;;;5064153;28;20238;-52
2022/07/14 04:33:34;;;;;;;5.82;2.45;;;;;;;;;;5063124;28;20231;-53
2022/07/14 04:36:01;;;;;;;8.38;2.50;;;;;;;;;;5064995;28;20274;-51
2022/07/14 04:38:29;;;;;;;5.80;1.75;;;;;;;;;;5056185;28;20306;-53
2022/07/14 04:40:56;;;;;;;5.68;2.10;;;;;;;;;;5062058;28;20274;-51
2022/07/14 04:43:22;;;;;;;7.40;2.13;;;;;;;;;;5063484;28;20235;-52
2022/07/14 04:45:49;;;;;;;8.70;2.25;;;;;;;;;;5063819;28;20242;-52
2022/07/14 04:48:17;;;;;;;3.75;1.80;;;;;;;;;;5065385;28;20281;-52
2022/07/14 04:53:27;;;;;;;5.53;2.50;;;;;;;;;;5064560;28;20242;-52
2022/07/14 04:55:54;;;;;;;3.92;1.27;;;;;;;;;;5060825;28;20235;-52
2022/07/14 04:58:21;;;;;;;5.43;2.70;;;;;;;;;;5062886;28;20708;-53
2022/07/14 05:00:47;;;;;;;5.05;1.92;;;;;;;;;;5063784;28;20263;-51
2022/07/14 05:03:14;;;;;;;8.80;2.05;;;;;;;;;;5065037;28;20239;-52
2022/07/14 05:05:41;;;;;;;7.55;2.13;;;;;;;;;;5066957;28;20609;-52
2022/07/14 05:08:08;;;;;;;5.88;2.35;;;;;;;;;;5057361;28;21155;-51
2022/07/14 05:10:34;;;;;;;9.93;2.03;;;;;;;;;;5060600;28;20605;-54
2022/07/14 05:13:01;;;;;;;9.13;2.97;;;;;;;;;;5056619;28;20284;-52
2022/07/14 05:15:27;;;;;;;4.63;1.52;;;;;;;;;;5062358;28;20235;-52
2022/07/14 05:17:54;;;;;;;4.03;1.90;;;;;;;;;;5065073;28;20250;-53
2022/07/14 05:20:20;;;;;;;8.95;1.73;;;;;;;;;;5060978;28;20236;-51
2022/07/14 05:22:48;;;;;;;8.35;2.78;;;;;;;;;;5064417;28;20687;-51
2022/07/14 05:25:15;;;;;;;9.95;1.90;;;;;;;;;;5062736;28;20249;-52
2022/07/14 05:27:41;;;;;;;4.90;2.65;;;;;;;;;;5056556;28;20737;-53
2022/07/14 05:30:09;;;;;;;5.50;2.42;;;;;;;;;;5061664;28;20227;-51
2022/07/14 05:32:36;;;;;;;5.78;2.17;;;;;;;;;;5062617;28;20238;-52
2022/07/14 05:35:02;;;;;;;9.23;2.20;;;;;;;;;;5056933;28;20235;-52
2022/07/14 05:37:29;;;;;;;7.53;3.15;;;;;;;;;;5061303;28;20231;-51
2022/07/14 05:39:57;;;;;;;9.15;2.40;;;;;;;;;;5062252;28;20231;-52
2022/07/14 05:42:23;;;;;;;4.00;1.77;;;;;;;;;;5062572;28;20242;-51
2022/07/14 05:44:50;;;;;;;5.57;1.90;;;;;;;;;;5063269;28;20242;-52
2022/07/14 05:47:16;;;;;;;7.75;1.92;;;;;;;;;;5064069;28;20238;-51
2022/07/14 05:49:43;;;;;;;6.20;2.38;;;;;;;;;;5063444;28;20247;-51
2022/07/14 05:52:11;;;;;;;9.48;2.83;;;;;;;;;;5059416;28;20235;-52
2022/07/14 05:54:37;;;;;;;5.60;2.58;;;;;;;;;;5063103;28;20237;-52
2022/07/14 05:57:05;;;;;;;5.95;2.15;;;;;;;;;;5061105;28;20239;-53
2022/07/14 05:59:31;;;;;;;5.95;1.50;;;;;;;;;;5061129;28;20288;-54
2022/07/14 06:01:58;;;;;;;4.55;2.22;;;;;;;;;;5059929;28;20606;-52
2022/07/14 06:04:24;;;;;;;6.47;2.83;;;;;;;;;;5061302;28;20706;-51
2022/07/14 06:06:51;;;;;;;7.78;2.25;;;;;;;;;;5059601;28;21755;-52
2022/07/14 06:09:17;;;;;;;7.00;2.10;;;;;;;;;;5061850;28;20235;-52
2022/07/14 06:11:45;;;;;;;6.50;2.33;;;;;;;;;;5060988;28;20427;-53
2022/07/14 06:14:14;;;;;;;6.15;1.83;;;;;;;;;;5059686;28;20321;-51
2022/07/14 06:16:40;;;;;;;5.47;2.25;;;;;;;;;;5062778;28;20247;-53
2022/07/14 06:19:07;;;;;;;7.07;2.17;;;;;;;;;;5063128;28;20283;-52
2022/07/14 06:21:33;;;;;;;6.95;2.20;;;;;;;;;;5060906;28;20595;-54
2022/07/14 06:23:59;;;;;;;6.95;1.88;;;;;;;;;;5064216;28;20231;-52
2022/07/14 06:26:26;;;;;;;6.18;2.45;;;;;;;;;;5061763;28;20231;-51
2022/07/14 06:28:52;;;;;;;4.05;2.05;;;;;;;;;;5061220;28;20241;-54
2022/07/14 06:31:20;;;;;;;4.72;2.10;;;;;;;;;;5061799;28;20280;-53
2022/07/14 06:33:46;;;;;;;5.57;2.10;;;;;;;;;;5060263;28;20245;-52
2022/07/14 06:36:12;;;;;;;5.50;2.17;;;;;;;;;;5057604;28;20238;-51
2022/07/14 06:38:39;;;;;;;5.65;2.00;;;;;;;;;;5061104;28;20238;-52
2022/07/14 06:41:05;;;;;;;4.78;2.40;;;;;;;;;;5064403;28;20233;-52
2022/07/14 06:43:31;;;;;;;3.20;1.95;;;;;;;;;;5059963;28;20378;-53
2022/07/14 06:45:58;;;;;;;9.63;2.42;;;;;;;;;;5058562;28;20234;-51
2022/07/14 06:48:25;;;;;;;7.80;2.15;;;;;;;;;;5061425;28;20235;-53
2022/07/14 06:50:52;;;;;;;5.53;2.15;;;;;;;;;;5055915;28;20237;-52
2022/07/14 06:53:18;;;;;;;4.32;2.50;;;;;;;;;;5062466;28;20713;-51
2022/07/14 06:55:44;;;;;;;5.18;2.20;;;;;;;;;;5059490;28;20659;-51
2022/07/14 06:58:11;;;;;;;5.45;1.92;;;;;;;;;;5061732;28;20721;-52
2022/07/14 07:00:37;;;;;;;7.40;2.55;;;;;;;;;;5062068;28;20227;-52
2022/07/14 07:03:09;;;;;;;3.50;1.50;;;;;;;;;;5059420;28;20341;-52
2022/07/14 07:08:21;;;;;;;7.75;2.25;;;;;;;;;;5036055;28;20243;-51
2022/07/14 07:10:47;;;;;;;4.47;1.45;;;;;;;;;;5065411;28;20443;-54
2022/07/14 07:13:13;;;;;;;3.35;1.50;;;;;;;;;;5062534;28;20300;-51
2022/07/14 07:15:40;;;;;;;6.93;1.80;;;;;;;;;;5065756;28;20243;-52
2022/07/14 07:18:06;;;;;;;4.13;1.75;;;;;;;;;;5066838;28;20236;-52
2022/07/14 07:20:33;;;;;;;5.30;2.10;;;;;;;;;;5068764;28;20287;-52
2022/07/14 07:23:01;;;;;;;3.90;1.50;;;;;;;;;;5067526;28;20223;-52
2022/07/14 07:25:27;;;;;;;2.50;1.20;;;;;;;;;;5064138;28;20685;-53
2022/07/14 07:27:53;;;;;;;4.60;1.67;;;;;;;;;;5059665;28;20227;-51
2022/07/14 07:30:20;;;;;;;3.08;1.63;;;;;;;;;;5066253;28;20235;-52
2022/07/14 07:32:46;;;;;;;3.33;1.40;;;;;;;;;;5066562;28;20231;-52
2022/07/14 07:35:13;;;;;;;3.60;1.35;;;;;;;;;;5064191;28;20706;-52
2022/07/14 07:37:39;;;;;;;3.25;1.33;;;;;;;;;;5062181;28;20249;-52
2022/07/14 07:40:08;;;;;;;6.07;1.83;;;;;;;;;;5066618;28;20235;-52
2022/07/14 07:42:34;;;;;;;4.65;1.50;;;;;;;;;;5062717;28;20226;-51
2022/07/14 07:45:01;;;;;;;4.90;1.17;;;;;;;;;;5065489;28;20608;-53
2022/07/14 07:47:27;;;;;;;4.47;1.33;;;;;;;;;;5057502;28;20726;-51
2022/07/14 07:49:53;;;;;;;5.30;1.20;;;;;;;;;;5065545;28;20227;-53
2022/07/14 07:52:20;;;;;;;2.22;1.13;;;;;;;;;;5059629;28;20236;-52
2022/07/14 07:54:47;;;;;;;2.65;0.75;;;;;;;;;;5065036;28;20669;-52
2022/07/14 07:57:15;;;;;;;0.88;0.77;;;;;;;;;;5062453;28;20236;-51
2022/07/14 07:59:41;;;;;;;3.53;1.10;;;;;;;;;;5058661;28;20231;-51
2022/07/14 08:02:08;;;;;;;2.83;1.30;;;;;;;;;;5065652;28;20713;-53
2022/07/14 08:04:34;;;;;;;3.15;0.98;;;;;;;;;;5067358;28;20231;-52
2022/07/14 08:07:01;;;;;;;3.17;1.30;;;;;;;;;;5064477;28;20238;-52
2022/07/14 08:09:27;;;;;;;2.47;1.50;;;;;;;;;;5059877;28;20234;-52
2022/07/14 08:11:54;;;;;;;7.18;1.45;;;;;;;;;;5061223;28;20231;-51
2022/07/14 08:17:06;;;;;;;3.30;1.67;;;;;;;;;;5065730;28;20242;-52
2022/07/14 08:19:32;;;;;;;3.08;1.40;;;;;;;;;;5064211;28;20257;-52
2022/07/14 08:21:58;;;;;;;3.33;1.20;;;;;;;;;;5056719;28;20251;-52
2022/07/14 08:24:25;;;;;;;2.88;1.10;;;;;;;;;;5062002;28;20235;-51
2022/07/14 08:26:52;;;;;;;2.90;1.58;;;;;;;;;;5063470;28;20306;-53
2022/07/14 08:29:18;;;;;;;3.15;1.55;;;;;;;;;;5063513;28;20235;-52
2022/07/14 08:31:46;;;;;;;3.67;1.40;;;;;;;;;;5067108;28;20234;-51
2022/07/14 08:34:12;;;;;;;3.03;0.90;;;;;;;;;;5065426;28;20236;-51
2022/07/14 08:36:39;;;;;;;3.97;1.00;;;;;;;;;;5065212;28;20234;-52
2022/07/14 08:39:05;;;;;;;3.55;1.48;;;;;;;;;;5064213;28;20234;-51
2022/07/14 08:41:32;;;;;;;2.78;1.10;;;;;;;;;;5066852;28;20247;-52
2022/07/14 08:43:59;;;;;;;3.15;1.35;;;;;;;;;;5064729;28;20274;-50
2022/07/14 08:46:25;;;;;;;2.63;1.10;;;;;;;;;;5066287;28;20227;-52
2022/07/14 08:48:53;;;;;;;5.57;1.40;;;;;;;;;;5060167;28;20232;-51
2022/07/14 08:51:20;;;;;;;4.28;1.10;;;;;;;;;;5059038;28;20285;-53
2022/07/14 08:53:46;;;;;;;3.15;1.17;;;;;;;;;;5063805;28;20737;-50
2022/07/14 08:56:13;;;;;;;1.38;0.90;;;;;;;;;;5054468;28;20232;-52
2022/07/14 08:58:39;;;;;;;4.47;1.10;;;;;;;;;;5055758;28;20227;-53
2022/07/14 09:01:05;;;;;;;3.33;1.00;;;;;;;;;;5053347;28;20231;-51
2022/07/14 09:03:32;;;;;;;7.40;2.33;;;;;;;;;;5060108;28;20235;-51
2022/07/14 09:06:00;;;;;;;8.55;1.75;;;;;;;;;;5061017;28;20235;-52
2022/07/14 09:08:26;;;;;;;2.65;1.25;;;;;;;;;;5062425;28;20231;-50
2022/07/14 09:10:53;;;;;;;2.97;1.20;;;;;;;;;;5057346;28;20239;-51
2022/07/14 09:13:21;;;;;;;2.70;1.30;;;;;;;;;;5060747;28;20227;-52
2022/07/14 09:15:48;;;;;;;6.20;1.27;;;;;;;;;;5060888;28;20228;-52
2022/07/14 09:18:22;;;;;;;2.83;1.13;;;;;;;;;;5059817;28;20243;-51
2022/07/14 09:20:48;;;;;;;3.88;1.30;;;;;;;;;;5059139;28;20346;-51
2022/07/14 09:23:25;;;;;;;6.18;1.38;;;;;;;;;;5059998;28;20615;-51
2022/07/14 09:25:56;;;;;;;3.88;1.40;;;;;;;;;;5060464;28;20604;-53
2022/07/14 09:28:25;;;;;;;1.73;0.80;;;;;;;;;;5059851;28;20310;-52
2022/07/14 09:30:52;;;;;;;2.78;0.90;;;;;;;;;;5056257;28;20314;-52
2022/07/14 09:33:18;;;;;;;1.92;1.05;;;;;;;;;;5074924;28;20235;-51
2022/07/14 09:35:45;;;;;;;3.13;1.40;;;;;;;;;;5070836;28;20223;-52
2022/07/14 09:38:18;;;;;;;2.58;1.02;;;;;;;;;;5075078;28;20231;-53
2022/07/14 09:40:45;;;;;;;2.88;1.20;;;;;;;;;;5068805;28;20235;-58
2022/07/14 09:43:13;;;;;;;2.15;1.02;;;;;;;;;;5074347;28;20458;-52
2022/07/14 09:45:40;;;;;;;1.55;1.10;;;;;;;;;;5062695;28;20253;-51
2022/07/14 09:48:08;;;;;;;7.65;2.13;;;;;;;;;;5058644;28;20238;-51
2022/07/14 09:50:38;;;;;;;2.17;1.33;;;;;;;;;;5058243;28;20227;-52
2022/07/14 09:53:11;;;;;;;4.22;1.23;;;;;;;;;;5062150;28;20227;-53
2022/07/14 09:55:41;;;;;;;1.73;1.08;;;;;;;;;;5053677;28;20238;-53
2022/07/14 09:58:08;;;;;;;3.78;1.20;;;;;;;;;;5060728;28;20769;-51
2022/07/14 10:00:34;;;;;;;4.30;0.95;;;;;;;;;;5058527;28;20231;-50
2022/07/14 10:03:03;;;;;;;7.55;1.17;;;;;;;;;;5065345;28;20236;-53
2022/07/14 10:05:29;;;;;;;3.35;1.00;;;;;;;;;;5053199;28;20228;-51
2022/07/14 10:07:58;;;;;;;1.38;0.75;;;;;;;;;;5065678;28;20239;-51
2022/07/14 10:10:25;;;;;;;1.80;1.02;;;;;;;;;;5057827;28;20721;-51
2022/07/14 10:12:53;;;;;;;1.92;1.05;;;;;;;;;;5064111;28;20227;-51
2022/07/14 10:15:19;;;;;;;4.80;0.90;;;;;;;;;;5060417;28;20239;-51
2022/07/14 10:17:45;;;;;;;4.38;1.02;;;;;;;;;;5057928;28;20235;-52
2022/07/14 10:20:13;;;;;;;2.33;0.85;;;;;;;;;;5059975;28;20608;-51
2022/07/14 10:22:40;;;;;;;3.55;0.80;;;;;;;;;;5062068;28;20306;-52
2022/07/14 10:25:07;;;;;;;1.90;0.88;;;;;;;;;;5064430;28;20306;-52
2022/07/14 10:27:35;;;;;;;1.20;0.60;;;;;;;;;;5062558;28;20231;-53
2022/07/14 10:30:02;;;;;;;1.67;0.82;;;;;;;;;;5057985;28;20744;-53
2022/07/14 10:32:36;;;;;;;1.52;0.88;;;;;;;;;;5062290;28;20231;-53
2022/07/14 10:35:08;;;;;;;2.63;1.10;;;;;;;;;;5054257;28;20231;-51
2022/07/14 10:37:36;;;;;;;2.53;0.93;;;;;;;;;;5051421;28;20227;-51
2022/07/14 10:40:08;;;;;;;2.88;1.05;;;;;;;;;;5058167;28;20231;-52
2022/07/14 10:42:41;;;;;;;3.22;1.05;;;;;;;;;;5058938;28;20333;-52
2022/07/14 10:45:09;;;;;;;1.73;0.73;;;;;;;;;;5058379;28;20242;-52
2022/07/14 10:47:49;;;;;;;1.20;0.73;;;;;;;;;;5062888;28;20651;-51
2022/07/14 10:50:19;;;;;;;2.28;0.68;;;;;;;;;;5054772;28;20818;-52
2022/07/14 10:52:50;;;;;;;1.40;0.68;;;;;;;;;;5056479;28;20227;-51
2022/07/14 10:55:17;;;;;;;2.05;0.77;;;;;;;;;;5055477;28;20239;-51
2022/07/14 10:58:03;;;;;;;1.83;0.90;;;;;;;;;;5059139;28;20235;-50
2022/07/14 11:00:47;;;;;;;1.85;0.60;;;;;;;;;;5062281;28;20227;-51
2022/07/14 11:03:22;;;;;;;0.93;0.70;;;;;;;;;;5056034;28;20733;-52
2022/07/14 11:06:08;;;;;;;1.85;0.65;;;;;;;;;;5055242;28;20266;-52
2022/07/14 11:08:36;;;;;;;2.17;0.77;;;;;;;;;;5057499;28;20602;-52
2022/07/14 11:11:08;;;;;;;3.08;0.80;;;;;;;;;;5054309;28;20227;-51
2022/07/14 11:13:35;;;;;;;1.30;0.68;;;;;;;;;;5062161;28;20238;-52
2022/07/14 11:16:03;;;;;;;5.07;1.20;;;;;;;;;;5062228;28;20775;-52
2022/07/14 11:18:34;;;;;;;1.02;0.65;;;;;;;;;;5059213;28;21086;-51
2022/07/14 11:21:05;;;;;;;2.80;0.85;;;;;;;;;;5053287;28;20231;-52
2022/07/14 11:23:32;;;;;;;0.82;0.43;;;;;;;;;;5054370;28;20235;-53
2022/07/14 11:26:01;;;;;;;2.95;0.90;;;;;;;;;;5057382;28;20733;-52
2022/07/14 11:28:35;;;;;;;2.50;0.77;;;;;;;;;;5054849;28;20227;-52
2022/07/14 11:31:11;;;;;;;2.50;0.93;;;;;;;;;;5061068;28;20247;-52
2022/07/14 11:36:17;;;;;;;1.77;0.90;;;;;;;;;;5059637;28;20230;-52
2022/07/14 11:36:27;;;;;;;2.47;0.90;;;;;;;;;;5062557;28;20571;-52
2022/07/14 11:39:09;;;;;;;2.28;0.65;;;;;;;;;;5058417;28;20384;-52
2022/07/14 11:41:41;;;;;;;2.78;0.85;;;;;;;;;;5057661;28;20305;-52
2022/07/14 11:44:08;;;;;;;0.93;0.63;;;;;;;;;;5058356;28;20239;-53
2022/07/14 11:46:34;;;;;;;0.65;0.60;;;;;;;;;;5063162;28;20232;-51
2022/07/14 11:49:02;;;;;;;1.63;1.02;;;;;;;;;;5062627;28;20235;-51
2022/07/14 11:51:29;;;;;;;1.70;0.75;;;;;;;;;;5053644;28;20235;-52
2022/07/14 11:53:56;;;;;;;0.95;0.50;;;;;;;;;;5063738;28;20737;-52
2022/07/14 11:56:24;;;;;;;1.88;0.60;;;;;;;;;;5058024;28;20242;-51
2022/07/14 11:58:51;;;;;;;1.35;0.80;;;;;;;;;;5065153;28;20247;-52
2022/07/14 12:01:18;;;;;;;1.67;0.65;;;;;;;;;;5065434;28;20227;-52
2022/07/14 12:03:44;;;;;;;2.50;0.88;;;;;;;;;;5062222;28;20467;-52
2022/07/14 12:06:12;;;;;;;0.65;0.52;;;;;;;;;;5062342;28;20227;-52
2022/07/14 12:08:40;;;;;;;1.80;0.80;;;;;;;;;;5064597;28;20235;-52
2022/07/14 12:11:11;;;;;;;2.60;0.68;;;;;;;;;;5062881;28;20239;-51
2022/07/14 12:13:47;;;;;;;0.98;0.68;;;;;;;;;;5066986;28;20241;-53
2022/07/14 12:16:13;;;;;;;3.42;0.90;;;;;;;;;;5062804;28;20238;-51
2022/07/14 12:18:40;;;;;;;2.25;1.10;;;;;;;;;;5064468;28;20235;-51
2022/07/14 12:21:06;;;;;;;2.97;0.52;;;;;;;;;;5060380;28;20573;-52
2022/07/14 12:23:35;;;;;;;2.05;1.00;;;;;;;;;;5064880;28;20235;-52
2022/07/14 12:26:02;;;;;;;0.77;0.57;;;;;;;;;;5065008;28;20862;-53
2022/07/14 12:28:28;;;;;;;1.13;0.63;;;;;;;;;;5062201;28;20234;-51
2022/07/14 12:30:55;;;;;;;1.83;0.70;;;;;;;;;;5065673;28;20310;-52
2022/07/14 12:33:22;;;;;;;1.33;0.60;;;;;;;;;;5063677;28;20693;-51
2022/07/14 12:35:50;;;;;;;3.92;0.60;;;;;;;;;;5065453;28;20241;-51
2022/07/14 12:38:17;;;;;;;1.73;0.40;;;;;;;;;;5058016;28;20600;-51
2022/07/14 12:40:47;;;;;;;3.17;0.70;;;;;;;;;;5060385;28;20327;-51
2022/07/14 12:43:13;;;;;;;2.80;0.43;;;;;;;;;;5063562;28;20609;-51
2022/07/14 12:45:59;;;;;;;1.10;0.70;;;;;;;;;;5060430;28;22191;-52
2022/07/14 12:48:27;;;;;;;2.00;0.90;;;;;;;;;;5052657;28;20248;-52
2022/07/14 12:50:54;;;;;;;3.83;0.47;;;;;;;;;;5052935;28;20326;-53
2022/07/14 12:53:20;;;;;;;1.45;0.57;;;;;;;;;;5060312;28;20235;-51
2022/07/14 12:55:48;;;;;;;2.05;0.77;;;;;;;;;;5060364;28;20235;-50
2022/07/14 12:58:15;;;;;;;1.17;0.43;;;;;;;;;;5062169;28;20231;-52
2022/07/14 13:00:44;;;;;;;2.28;0.77;;;;;;;;;;5062826;28;20235;-51
2022/07/14 13:03:11;;;;;;;1.00;0.75;;;;;;;;;;5063007;28;20320;-51
2022/07/14 13:05:37;;;;;;;3.47;1.30;;;;;;;;;;5058230;28;20255;-51
2022/07/14 13:08:19;;;;;;;1.52;0.70;;;;;;;;;;5061657;28;20234;-51
2022/07/14 13:10:56;;;;;;;1.52;0.60;;;;;;;;;;5062558;28;20286;-52
2022/07/14 13:13:28;;;;;;;1.15;0.63;;;;;;;;;;5064515;28;20263;-52
2022/07/14 13:15:54;;;;;;;1.55;0.70;;;;;;;;;;5058273;28;20273;-52
2022/07/14 13:18:21;;;;;;;0.63;0.52;;;;;;;;;;5063517;28;20244;-51
2022/07/14 13:20:53;;;;;;;1.45;0.68;;;;;;;;;;5061036;28;20227;-51
2022/07/14 13:23:20;;;;;;;0.63;0.63;;;;;;;;;;5061392;28;21630;-52
2022/07/14 13:25:47;;;;;;;1.55;0.73;;;;;;;;;;5059221;28;20246;-52
2022/07/14 13:28:14;;;;;;;21.52;1.05;;;;;;;;;;5060828;28;20236;-52
2022/07/14 13:30:41;;;;;;;2.72;0.73;;;;;;;;;;5056807;28;20235;-51
2022/07/14 13:33:07;;;;;;;1.00;0.88;;;;;;;;;;5062885;28;20227;-51
2022/07/14 13:35:34;;;;;;;1.17;0.40;;;;;;;;;;5062051;28;20228;-51
2022/07/14 13:38:01;;;;;;;1.35;0.70;;;;;;;;;;5059683;28;20242;-52
2022/07/14 13:40:29;;;;;;;0.85;0.60;;;;;;;;;;5061671;28;20239;-52
2022/07/14 13:42:56;;;;;;;1.98;0.88;;;;;;;;;;5067531;28;20235;-51
2022/07/14 13:45:23;;;;;;;1.75;1.08;;;;;;;;;;5052888;28;20767;-51
2022/07/14 13:47:50;;;;;;;1.20;0.60;;;;;;;;;;5062231;28;20227;-50
2022/07/14 13:53:00;;;;;;;4.00;0.60;;;;;;;;;;5061288;28;20229;-51
2022/07/14 13:55:26;;;;;;;2.95;0.40;;;;;;;;;;5060911;28;20227;-51
2022/07/14 13:57:52;;;;;;;2.28;0.60;;;;;;;;;;5060926;28;20235;-53
2022/07/14 14:00:19;;;;;;;1.02;0.40;;;;;;;;;;5052747;28;20327;-51
2022/07/14 14:05:30;;;;;;;2.63;0.88;;;;;;;;;;5056782;28;20795;-51
2022/07/14 14:07:57;;;;;;;0.88;0.88;;;;;;;;;;5060936;28;20230;-52
2022/07/14 14:10:23;;;;;;;0.90;0.75;;;;;;;;;;5056640;28;20250;-51
2022/07/14 14:12:50;;;;;;;0.98;0.63;;;;;;;;;;5061300;28;20227;-51
2022/07/14 14:15:16;;;;;;;1.25;0.70;;;;;;;;;;5058425;28;20309;-51
2022/07/14 14:17:42;;;;;;;4.28;1.00;;;;;;;;;;5061483;28;20227;-52
2022/07/14 14:20:11;;;;;;;3.08;0.52;;;;;;;;;;5056780;28;20234;-52
2022/07/14 14:22:37;;;;;;;2.20;0.70;;;;;;;;;;5062123;28;20731;-51
2022/07/14 14:25:05;;;;;;;1.42;0.70;;;;;;;;;;5060170;28;20309;-50
2022/07/14 14:27:31;;;;;;;0.63;0.38;;;;;;;;;;5059579;28;20237;-51
2022/07/14 14:29:57;;;;;;;0.82;0.60;;;;;;;;;;5058223;28;20238;-50
2022/07/14 14:32:26;;;;;;;0.93;0.47;;;;;;;;;;5057103;28;20929;-52
2022/07/14 14:34:52;;;;;;;3.22;0.75;;;;;;;;;;5057361;28;20649;-51
2022/07/14 14:37:20;;;;;;;1.27;0.60;;;;;;;;;;5062809;28;20241;-51
2022/07/14 14:39:46;;;;;;;0.80;0.80;;;;;;;;;;5054578;28;20243;-51
2022/07/14 14:42:13;;;;;;;1.05;0.88;;;;;;;;;;5056343;28;20254;-52
2022/07/14 14:44:40;;;;;;;0.77;0.70;;;;;;;;;;5060823;28;20816;-50
2022/07/14 14:47:06;;;;;;;0.70;0.57;;;;;;;;;;5060302;28;20242;-50
2022/07/14 14:49:34;;;;;;;0.75;0.57;;;;;;;;;;5056914;28;20230;-57
2022/07/14 14:52:01;;;;;;;0.50;0.50;;;;;;;;;;5059098;28;20671;-51
2022/07/14 14:54:29;;;;;;;0.80;0.70;;;;;;;;;;5061211;28;20234;-52
2022/07/14 14:56:56;;;;;;;1.80;0.60;;;;;;;;;;5055149;28;20323;-52
2022/07/14 14:59:22;;;;;;;1.42;0.60;;;;;;;;;;5052268;28;20771;-51
2022/07/14 15:01:49;;;;;;;1.20;0.77;;;;;;;;;;5060733;28;20281;-51
2022/07/14 15:04:15;;;;;;;1.38;0.60;;;;;;;;;;5059840;28;20698;-52